createdAt,value
2023-01-20T00:01:07.061Z,94312.03
2023-01-20T00:03:34.740Z,94309.44
2023-01-20T00:06:02.567Z,94313.84
2023-01-20T00:08:30.190Z,94304.53
2023-01-20T00:10:57.929Z,94320.06
2023-01-20T00:13:25.571Z,94315.66
2023-01-20T00:15:54.548Z,94309.75
2023-01-20T00:18:22.207Z,94313.19
2023-01-20T00:20:49.804Z,94310.59
2023-01-20T00:23:17.429Z,94315.81
2023-01-20T00:25:45.096Z,94319.22
2023-01-20T00:28:12.741Z,94320.06
2023-01-20T00:30:41.919Z,94329.69
2023-01-20T00:33:10.930Z,94326.44
2023-01-20T00:35:38.616Z,94330.66
2023-01-20T00:38:06.273Z,94332.63
2023-01-20T00:40:34.091Z,94327.56
2023-01-20T00:43:01.701Z,94331.19
2023-01-20T00:45:29.359Z,94335.72
2023-01-20T00:47:56.978Z,94328.09
2023-01-20T00:50:26.096Z,94329.09
2023-01-20T00:52:53.750Z,94335.28
2023-01-20T00:55:21.356Z,94335.44
2023-01-20T00:57:49.006Z,94338.06
2023-01-20T01:00:19.253Z,94334.81
2023-01-20T01:02:46.887Z,94335.78
2023-01-20T01:05:14.851Z,94340.19
2023-01-20T01:07:44.065Z,94349.66
2023-01-20T01:10:12.213Z,94344.59
2023-01-20T01:12:39.869Z,94345.56
2023-01-20T01:15:08.394Z,94343.94
2023-01-20T01:17:36.088Z,94347.22
2023-01-20T01:20:04.153Z,94351.63
2023-01-20T01:22:32.568Z,94351.63
2023-01-20T01:25:01.606Z,94348.38
2023-01-20T01:27:29.537Z,94356.00
2023-01-20T01:29:59.751Z,94359.59
2023-01-20T01:32:27.475Z,94359.59
2023-01-20T01:34:55.239Z,94360.59
2023-01-20T01:37:22.905Z,94363.84
2023-01-20T01:39:50.695Z,94364.81
2023-01-20T01:42:23.642Z,94368.41
2023-01-20T01:45:21.567Z,94366.00
2023-01-20T01:47:51.647Z,94366.78
2023-01-20T01:50:22.835Z,94372.00
2023-01-20T01:52:54.133Z,94366.00
2023-01-20T01:55:26.821Z,94368.59
2023-01-20T01:57:57.671Z,94357.34
2023-01-20T02:00:25.455Z,94366.00
2023-01-20T02:02:53.749Z,94358.16
2023-01-20T02:05:22.866Z,94371.22
2023-01-20T02:07:51.065Z,94368.59
2023-01-20T02:10:19.285Z,94368.59
2023-01-20T02:12:51.187Z,94370.38
2023-01-20T02:15:27.100Z,94373.81
2023-01-20T02:18:09.480Z,94368.59
2023-01-20T02:21:16.319Z,94371.22
2023-01-20T02:24:08.477Z,94371.03
2023-01-20T02:26:53.966Z,94363.19
2023-01-20T02:29:46.138Z,94371.22
2023-01-20T02:32:23.805Z,94375.59
2023-01-20T02:34:58.732Z,94376.44
2023-01-20T02:37:29.704Z,94379.03
2023-01-20T02:40:15.604Z,94373.81
2023-01-20T02:42:49.565Z,94381.66
2023-01-20T02:45:25.278Z,94378.22
2023-01-20T02:47:58.540Z,94379.19
2023-01-20T02:50:41.819Z,94376.56
2023-01-20T02:53:12.049Z,94381.97
2023-01-20T02:55:45.264Z,94384.59
2023-01-20T02:58:18.065Z,94392.41
2023-01-20T03:00:51.574Z,94396.66
2023-01-20T03:03:26.216Z,94392.41
2023-01-20T03:05:58.249Z,94397.63
2023-01-20T03:08:30.619Z,94402.84
2023-01-20T03:11:05.108Z,94399.28
2023-01-20T03:13:37.114Z,94404.50
2023-01-20T03:16:09.498Z,94413.13
2023-01-20T03:18:39.955Z,94399.28
2023-01-20T03:21:10.078Z,94408.91
2023-01-20T03:23:42.602Z,94416.53
2023-01-20T03:26:12.676Z,94410.50
2023-01-20T03:28:41.641Z,94418.50
2023-01-20T03:31:14.954Z,94417.53
2023-01-20T03:33:44.695Z,94420.16
2023-01-20T03:36:14.276Z,94424.56
2023-01-20T03:38:42.680Z,94418.50
2023-01-20T03:41:17.987Z,94419.34
2023-01-20T03:43:52.089Z,94420.31
2023-01-20T03:46:28.574Z,94433.19
2023-01-20T03:49:05.297Z,94433.19
2023-01-20T03:51:41.310Z,94436.59
2023-01-20T03:54:13.512Z,94438.56
2023-01-20T03:56:47.722Z,94442.81
2023-01-20T03:59:17.174Z,94443.78
2023-01-20T04:01:46.069Z,94450.66
2023-01-20T04:04:19.794Z,94445.44
2023-01-20T04:06:51.423Z,94453.25
2023-01-20T04:09:25.121Z,94456.84
2023-01-20T04:11:53.146Z,94452.63
2023-01-20T04:14:20.839Z,94460.44
2023-01-20T04:16:54.533Z,94459.44
2023-01-20T04:19:23.993Z,94458.63
2023-01-20T04:21:59.833Z,94460.44
2023-01-20T04:24:32.294Z,94465.66
2023-01-20T04:26:59.945Z,94464.84
2023-01-20T04:29:27.564Z,94472.66
2023-01-20T04:32:00.209Z,94469.25
2023-01-20T04:34:29.677Z,94471.84
2023-01-20T04:36:57.440Z,94471.03
2023-01-20T04:39:25.161Z,94468.41
2023-01-20T04:41:52.791Z,94478.06
2023-01-20T04:44:20.464Z,94478.84
2023-01-20T04:46:48.206Z,94484.06
2023-01-20T04:49:15.988Z,94487.50
2023-01-20T04:51:44.981Z,94489.16
2023-01-20T04:54:12.956Z,94494.38
2023-01-20T04:56:40.570Z,94488.34
2023-01-20T04:59:08.290Z,94492.56
2023-01-20T05:01:35.994Z,94490.75
2023-01-20T05:04:03.767Z,94503.81
2023-01-20T05:06:31.420Z,94502.03
2023-01-20T05:09:00.403Z,94503.81
2023-01-20T05:11:28.036Z,94509.03
2023-01-20T05:13:55.699Z,94511.66
2023-01-20T05:16:25.996Z,94516.22
2023-01-20T05:18:54.888Z,94513.44
2023-01-20T05:21:22.556Z,94513.44
2023-01-20T05:23:50.211Z,94521.25
2023-01-20T05:26:19.201Z,94520.28
2023-01-20T05:28:47.366Z,94536.78
2023-01-20T05:31:15.143Z,94534.16
2023-01-20T05:33:42.837Z,94537.75
2023-01-20T05:36:12.151Z,94542.00
2023-01-20T05:38:39.766Z,94535.31
2023-01-20T05:41:09.225Z,94538.56
2023-01-20T05:43:38.745Z,94540.34
2023-01-20T05:46:06.949Z,94546.41
2023-01-20T05:48:34.745Z,94555.88
2023-01-20T05:51:02.370Z,94554.22
2023-01-20T05:53:29.988Z,94555.03
2023-01-20T05:56:01.965Z,94548.84
2023-01-20T05:58:30.512Z,94562.88
2023-01-20T06:01:06.927Z,94563.69
2023-01-20T06:03:34.736Z,94568.91
2023-01-20T06:06:02.432Z,94572.31
2023-01-20T06:08:30.445Z,94568.09
2023-01-20T06:10:58.080Z,94572.31
2023-01-20T06:13:25.748Z,94570.72
2023-01-20T06:15:53.969Z,94576.75
2023-01-20T06:18:23.697Z,94573.97
2023-01-20T06:20:51.693Z,94578.38
2023-01-20T06:23:19.741Z,94580.16
2023-01-20T06:25:47.390Z,94576.75
2023-01-20T06:28:15.024Z,94587.19
2023-01-20T06:30:43.252Z,94587.34
2023-01-20T06:33:11.439Z,94589.94
2023-01-20T06:35:40.408Z,94592.56
2023-01-20T06:38:08.068Z,94593.38
2023-01-20T06:40:35.687Z,94594.19
2023-01-20T06:43:03.322Z,94601.84
2023-01-20T06:45:30.936Z,94598.44
2023-01-20T06:47:58.531Z,94605.47
2023-01-20T06:50:26.223Z,94605.28
2023-01-20T06:52:55.896Z,94608.06
2023-01-20T06:55:23.589Z,94615.91
2023-01-20T06:57:51.268Z,94612.47
2023-01-20T07:00:19.708Z,94612.47
2023-01-20T07:02:49.554Z,94621.13
2023-01-20T07:05:17.466Z,94628.13
2023-01-20T07:07:45.178Z,94627.31
2023-01-20T07:10:14.401Z,94639.38
2023-01-20T07:12:42.084Z,94637.75
2023-01-20T07:15:10.167Z,94643.78
2023-01-20T07:17:37.785Z,94641.19
2023-01-20T07:20:06.013Z,94642.00
2023-01-20T07:22:33.659Z,94652.44
2023-01-20T07:25:01.276Z,94651.63
2023-01-20T07:27:30.275Z,94654.22
2023-01-20T07:29:57.936Z,94657.66
2023-01-20T07:32:25.664Z,94663.84
2023-01-20T07:34:53.313Z,94668.09
2023-01-20T07:37:20.925Z,94671.50
2023-01-20T07:39:48.566Z,94670.72
2023-01-20T07:42:16.210Z,94678.53
2023-01-20T07:44:45.187Z,94685.38
2023-01-20T07:47:12.829Z,94689.78
2023-01-20T07:49:40.449Z,94688.16
2023-01-20T07:52:08.068Z,94692.56
2023-01-20T07:54:35.734Z,94695.16
2023-01-20T07:57:03.391Z,94703.00
2023-01-20T07:59:31.064Z,94705.59
2023-01-20T08:02:00.174Z,94700.38
2023-01-20T08:04:27.900Z,94705.59
2023-01-20T08:06:55.585Z,94708.22
2023-01-20T08:09:23.279Z,94710.81
2023-01-20T08:11:50.943Z,94709.19
2023-01-20T08:14:18.615Z,94710.81
2023-01-20T08:16:46.354Z,94712.63
2023-01-20T08:19:15.411Z,94717.69
2023-01-20T08:21:43.073Z,94721.28
2023-01-20T08:24:11.755Z,94712.47
2023-01-20T08:26:39.404Z,94728.13
2023-01-20T08:29:09.500Z,94720.31
2023-01-20T08:31:37.963Z,94726.47
2023-01-20T08:34:06.001Z,94732.53
2023-01-20T08:36:37.450Z,94730.75
2023-01-20T08:39:06.795Z,94735.97
2023-01-20T08:41:36.858Z,94745.41
2023-01-20T08:44:06.713Z,94736.75
2023-01-20T08:46:35.353Z,94745.59
2023-01-20T08:49:03.037Z,94745.59
2023-01-20T08:51:33.094Z,94753.41
2023-01-20T08:54:03.109Z,94761.25
2023-01-20T08:56:31.190Z,94763.03
2023-01-20T08:58:59.843Z,94767.41
2023-01-20T09:01:30.049Z,94772.66
2023-01-20T09:04:05.798Z,94763.03
2023-01-20T09:06:39.086Z,94773.63
2023-01-20T09:09:08.152Z,94778.69
2023-01-20T09:11:35.843Z,94777.88
2023-01-20T09:14:03.591Z,94783.91
2023-01-20T09:16:31.539Z,94786.69
2023-01-20T09:18:59.197Z,94794.34
2023-01-20T09:21:26.825Z,94789.13
2023-01-20T09:23:54.484Z,94794.34
2023-01-20T09:26:35.391Z,94800.41
2023-01-20T09:29:09.393Z,94797.78
2023-01-20T09:31:38.400Z,94803.81
2023-01-20T09:34:06.108Z,94803.00
2023-01-20T09:36:33.791Z,94799.41
2023-01-20T09:39:19.032Z,94803.81
2023-01-20T09:42:07.516Z,94812.44
2023-01-20T09:44:50.771Z,94818.66
2023-01-20T09:47:30.756Z,94813.44
2023-01-20T09:50:28.091Z,94819.31
2023-01-20T09:53:05.778Z,94822.91
2023-01-20T09:55:42.273Z,94827.31
2023-01-20T09:58:17.631Z,94821.28
2023-01-20T10:00:49.600Z,94819.63
2023-01-20T10:03:22.028Z,94826.50
2023-01-20T10:05:52.116Z,94823.06
2023-01-20T10:08:24.903Z,94831.72
2023-01-20T10:10:57.435Z,94819.63
2023-01-20T10:13:33.103Z,94831.72
2023-01-20T10:16:06.358Z,94823.88
2023-01-20T10:18:42.041Z,94829.09
2023-01-20T10:21:14.567Z,94824.84
2023-01-20T10:23:47.613Z,94828.28
2023-01-20T10:26:21.511Z,94825.50
2023-01-20T10:28:54.109Z,94824.72
2023-01-20T10:31:27.580Z,94829.94
2023-01-20T10:33:59.393Z,94829.09
2023-01-20T10:36:30.693Z,94831.72
2023-01-20T10:39:02.735Z,94824.84
2023-01-20T10:41:39.164Z,94833.34
2023-01-20T10:44:12.774Z,94829.09
2023-01-20T10:46:58.217Z,94830.72
2023-01-20T10:49:48.855Z,94832.53
2023-01-20T10:52:31.994Z,94829.94
2023-01-20T10:55:10.934Z,94832.53
2023-01-20T10:57:39.133Z,94824.72
2023-01-20T11:00:25.657Z,94824.72
2023-01-20T11:02:54.184Z,94823.06
2023-01-20T11:05:25.432Z,94828.28
2023-01-20T11:07:55.006Z,94829.09
2023-01-20T11:10:25.295Z,94834.31
2023-01-20T11:12:56.617Z,94832.69
2023-01-20T11:15:30.353Z,94836.13
2023-01-20T11:18:27.803Z,94835.16
2023-01-20T11:20:58.592Z,94834.31
2023-01-20T11:23:35.690Z,94833.50
2023-01-20T11:26:09.893Z,94836.13
2023-01-20T11:28:47.587Z,94836.13
2023-01-20T11:31:17.677Z,94830.06
2023-01-20T11:34:00.105Z,94836.94
2023-01-20T11:36:28.310Z,94835.28
2023-01-20T11:38:57.944Z,94836.13
2023-01-20T11:41:27.650Z,94831.72
2023-01-20T11:43:56.828Z,94837.91
2023-01-20T11:46:31.793Z,94836.94
2023-01-20T11:49:22.020Z,94832.53
2023-01-20T11:51:52.832Z,94835.94
2023-01-20T11:54:22.893Z,94829.94
2023-01-20T11:56:54.901Z,94834.31
2023-01-20T11:59:27.039Z,94832.53
2023-01-20T12:02:02.586Z,94835.16
2023-01-20T12:05:07.856Z,94833.34
2023-01-20T12:07:40.015Z,94841.16
2023-01-20T12:10:18.067Z,94831.56
2023-01-20T12:12:50.588Z,94834.16
2023-01-20T12:15:22.292Z,94842.81
2023-01-20T12:17:57.833Z,94840.22
2023-01-20T12:20:31.325Z,94834.16
2023-01-20T12:23:20.833Z,94839.38
2023-01-20T12:25:55.287Z,94835.81
2023-01-20T12:28:26.422Z,94840.03
2023-01-20T12:31:00.333Z,94842.81
2023-01-20T12:33:31.800Z,94843.78
2023-01-20T12:36:31.950Z,94849.00
2023-01-20T12:39:13.465Z,94854.22
2023-01-20T12:42:15.142Z,94842.16
2023-01-20T12:44:48.776Z,94848.19
2023-01-20T12:47:28.958Z,94855.22
2023-01-20T12:50:22.967Z,94852.59
2023-01-20T12:53:05.040Z,94857.81
2023-01-20T12:55:49.764Z,94861.38
2023-01-20T12:58:26.830Z,94857.00
2023-01-20T13:01:13.268Z,94868.25
2023-01-20T13:04:10.559Z,94865.66
2023-01-20T13:07:04.267Z,94866.47
2023-01-20T13:09:48.193Z,94863.88
2023-01-20T13:12:39.878Z,94867.28
2023-01-20T13:15:19.173Z,94856.81
2023-01-20T13:18:00.913Z,94860.25
2023-01-20T13:20:30.482Z,94868.75
2023-01-20T13:23:05.136Z,94864.53
2023-01-20T13:25:34.765Z,94865.31
2023-01-20T13:28:03.547Z,94871.38
2023-01-20T13:30:43.956Z,94869.75
2023-01-20T13:33:17.827Z,94873.31
2023-01-20T13:35:48.091Z,94881.81
2023-01-20T13:38:25.369Z,94885.25
2023-01-20T13:40:55.843Z,94884.41
2023-01-20T13:43:48.509Z,94887.84
2023-01-20T13:46:52.591Z,94889.63
2023-01-20T13:49:29.872Z,94896.63
2023-01-20T13:51:57.580Z,94891.41
2023-01-20T13:54:49.048Z,94895.84
2023-01-20T13:57:40.071Z,94900.25
2023-01-20T14:00:19.306Z,94906.28
2023-01-20T14:02:48.966Z,94897.63
2023-01-20T14:05:34.385Z,94908.91
2023-01-20T14:08:02.256Z,94905.47
2023-01-20T14:10:31.276Z,94905.28
2023-01-20T14:12:59.024Z,94905.47
2023-01-20T14:15:32.038Z,94906.28
2023-01-20T14:18:01.572Z,94907.25
2023-01-20T14:20:30.595Z,94912.47
2023-01-20T14:23:39.827Z,94920.28
2023-01-20T14:26:13.636Z,94916.06
2023-01-20T14:28:49.199Z,94920.28
2023-01-20T14:31:23.862Z,94918.69
2023-01-20T14:33:59.477Z,94928.13
2023-01-20T14:36:30.648Z,94932.41
2023-01-20T14:39:01.205Z,94931.56
2023-01-20T14:41:45.724Z,94925.53
2023-01-20T14:44:18.270Z,94934.00
2023-01-20T14:46:47.622Z,94928.63
2023-01-20T14:49:18.572Z,94939.06
2023-01-20T14:51:48.451Z,94944.16
2023-01-20T14:54:34.998Z,94943.34
2023-01-20T14:57:13.494Z,94951.00
2023-01-20T14:59:41.227Z,94956.38
2023-01-20T15:02:19.145Z,94952.13
2023-01-20T15:04:46.930Z,94959.81
2023-01-20T15:07:20.340Z,94959.00
2023-01-20T15:09:55.156Z,94964.22
2023-01-20T15:12:42.378Z,94959.94
2023-01-20T15:15:26.256Z,94969.59
2023-01-20T15:18:18.987Z,94966.81
2023-01-20T15:20:49.426Z,94965.19
2023-01-20T15:23:23.077Z,94969.59
2023-01-20T15:25:51.843Z,94972.88
2023-01-20T15:28:27.622Z,94972.88
2023-01-20T15:30:57.181Z,94975.63
2023-01-20T15:33:25.786Z,94972.88
2023-01-20T15:35:58.324Z,94979.72
2023-01-20T15:38:28.559Z,94976.44
2023-01-20T15:40:56.272Z,94978.22
2023-01-20T15:43:25.355Z,94987.72
2023-01-20T15:45:52.985Z,94988.66
2023-01-20T15:48:24.338Z,94989.38
2023-01-20T15:50:52.131Z,94991.16
2023-01-20T15:53:19.877Z,94995.53
2023-01-20T15:55:50.284Z,94991.97
2023-01-20T15:58:26.025Z,94997.19
2023-01-20T16:00:54.984Z,94992.78
2023-01-20T16:03:23.127Z,94996.38
2023-01-20T16:05:51.459Z,95003.22
2023-01-20T16:08:21.380Z,95005.81
2023-01-20T16:10:49.747Z,95009.41
2023-01-20T16:13:17.768Z,95005.97
2023-01-20T16:15:46.802Z,95008.44
2023-01-20T16:18:16.346Z,95014.63
2023-01-20T16:20:45.696Z,95018.06
2023-01-20T16:23:14.456Z,95016.25
2023-01-20T16:25:42.617Z,95018.06
2023-01-20T16:28:14.452Z,95016.25
2023-01-20T16:30:42.913Z,95019.69
2023-01-20T16:33:20.938Z,95016.25
2023-01-20T16:35:49.304Z,95012.84
2023-01-20T16:38:18.951Z,95019.69
2023-01-20T16:40:50.367Z,95024.91
2023-01-20T16:43:18.653Z,95021.47
2023-01-20T16:45:50.550Z,95026.72
2023-01-20T16:48:19.685Z,95035.38
2023-01-20T16:50:47.557Z,95028.53
2023-01-20T16:53:15.812Z,95037.03
2023-01-20T16:55:45.266Z,95037.97
2023-01-20T16:58:13.065Z,95038.81
2023-01-20T17:00:41.257Z,95038.81
2023-01-20T17:03:09.588Z,95032.59
2023-01-20T17:05:38.653Z,95042.25
2023-01-20T17:08:06.594Z,95047.59
2023-01-20T17:10:34.468Z,95053.63
2023-01-20T17:13:02.158Z,95049.25
2023-01-20T17:15:29.966Z,95054.47
2023-01-20T17:18:00.305Z,95051.84
2023-01-20T17:20:31.009Z,95052.69
2023-01-20T17:23:00.115Z,95052.69
2023-01-20T17:25:27.914Z,95047.59
2023-01-20T17:27:55.665Z,95059.69
2023-01-20T17:30:26.054Z,95058.84
2023-01-20T17:32:54.030Z,95061.47
2023-01-20T17:35:21.882Z,95059.69
2023-01-20T17:37:49.713Z,95067.53
2023-01-20T17:40:19.326Z,95077.97
2023-01-20T17:42:47.152Z,95075.34
2023-01-20T17:45:15.251Z,95080.41
2023-01-20T17:47:42.888Z,95080.41
2023-01-20T17:50:11.800Z,95089.06
2023-01-20T17:52:39.760Z,95088.25
2023-01-20T17:55:08.380Z,95084.69
2023-01-20T17:57:37.452Z,95088.25
2023-01-20T18:00:06.481Z,95094.44
2023-01-20T18:02:34.232Z,95104.75
2023-01-20T18:05:01.941Z,95098.69
2023-01-20T18:07:29.679Z,95098.84
2023-01-20T18:09:57.387Z,95098.84
2023-01-20T18:12:25.835Z,95100.47
2023-01-20T18:14:55.273Z,95097.84
2023-01-20T18:17:22.923Z,95105.84
2023-01-20T18:19:50.597Z,95108.47
2023-01-20T18:22:18.935Z,95113.69
2023-01-20T18:24:47.012Z,95116.28
2023-01-20T18:27:14.924Z,95111.91
2023-01-20T18:29:42.560Z,95113.69
2023-01-20T18:32:11.570Z,95116.28
2023-01-20T18:34:39.205Z,95118.06
2023-01-20T18:37:06.871Z,95119.72
2023-01-20T18:39:34.605Z,95121.50
2023-01-20T18:42:02.227Z,95131.81
2023-01-20T18:44:29.927Z,95124.97
2023-01-20T18:46:57.553Z,95124.97
2023-01-20T18:49:26.545Z,95120.69
2023-01-20T18:51:54.232Z,95125.78
2023-01-20T18:54:21.957Z,95118.91
2023-01-20T18:56:49.746Z,95123.28
2023-01-20T18:59:17.431Z,95126.75
2023-01-20T19:01:45.382Z,95120.56
2023-01-20T19:04:13.985Z,95127.41
2023-01-20T19:06:45.807Z,95125.63
2023-01-20T19:09:15.799Z,95134.13
2023-01-20T19:11:43.526Z,95129.72
2023-01-20T19:14:14.706Z,95132.34
2023-01-20T19:16:45.353Z,95125.47
2023-01-20T19:19:13.817Z,95131.50
2023-01-20T19:21:43.109Z,95135.09
2023-01-20T19:24:17.039Z,95126.44
2023-01-20T19:26:44.709Z,95135.91
2023-01-20T19:29:15.727Z,95128.22
2023-01-20T19:31:43.539Z,95131.81
2023-01-20T19:34:11.585Z,95127.41
2023-01-20T19:36:39.570Z,95131.97
2023-01-20T19:39:08.805Z,95135.25
2023-01-20T19:41:36.624Z,95142.25
2023-01-20T19:44:06.723Z,95145.69
2023-01-20T19:46:36.513Z,95145.69
2023-01-20T19:49:04.390Z,95151.88
2023-01-20T19:51:32.388Z,95144.84
2023-01-20T19:54:01.847Z,95154.50
2023-01-20T19:56:32.959Z,95151.06
2023-01-20T19:59:01.922Z,95157.13
2023-01-20T20:01:31.675Z,95156.28
2023-01-20T20:04:00.825Z,95158.91
2023-01-20T20:06:30.922Z,95162.34
2023-01-20T20:09:00.010Z,95158.06
2023-01-20T20:11:27.976Z,95158.06
2023-01-20T20:13:58.406Z,95160.69
2023-01-20T20:16:27.796Z,95158.91
2023-01-20T20:18:56.610Z,95161.50
2023-01-20T20:21:25.137Z,95162.34
2023-01-20T20:23:54.449Z,95166.56
2023-01-20T20:26:23.524Z,95170.84
2023-01-20T20:28:52.048Z,95170.84
2023-01-20T20:31:22.272Z,95171.78
2023-01-20T20:33:49.943Z,95167.41
2023-01-20T20:36:17.627Z,95168.34
2023-01-20T20:38:51.275Z,95166.56
2023-01-20T20:41:19.212Z,95171.78
2023-01-20T20:43:46.862Z,95177.00
2023-01-20T20:46:16.685Z,95185.66
2023-01-20T20:48:45.822Z,95181.28
2023-01-20T20:51:15.688Z,95181.28
2023-01-20T20:53:44.698Z,95178.66
2023-01-20T20:56:14.625Z,95182.09
2023-01-20T20:58:59.793Z,95187.44
2023-01-20T21:01:29.718Z,95185.66
2023-01-20T21:04:00.414Z,95187.31
2023-01-20T21:06:28.968Z,95186.50
2023-01-20T21:08:56.655Z,95189.13
2023-01-20T21:11:25.013Z,95184.72
2023-01-20T21:13:53.349Z,95184.72
2023-01-20T21:16:23.348Z,95188.13
2023-01-20T21:18:51.951Z,95181.28
2023-01-20T21:21:21.243Z,95187.44
2023-01-20T21:23:50.579Z,95184.72
2023-01-20T21:26:18.631Z,95191.56
2023-01-20T21:28:49.108Z,95184.84
2023-01-20T21:31:19.178Z,95185.66
2023-01-20T21:33:47.080Z,95188.28
2023-01-20T21:36:14.729Z,95192.69
2023-01-20T21:38:45.440Z,95193.50
2023-01-20T21:41:14.591Z,95202.28
2023-01-20T21:44:01.598Z,95192.84
2023-01-20T21:46:31.067Z,95196.28
2023-01-20T21:49:16.736Z,95204.22
2023-01-20T21:52:01.944Z,95205.88
2023-01-20T21:54:31.624Z,95193.78
2023-01-20T21:57:00.616Z,95199.00
2023-01-20T21:59:28.574Z,95205.22
2023-01-20T22:01:56.241Z,95209.59
2023-01-20T22:04:23.916Z,95205.34
2023-01-20T22:06:51.605Z,95213.88
2023-01-20T22:09:19.221Z,95212.22
2023-01-20T22:11:48.205Z,95220.06
2023-01-20T22:14:15.936Z,95220.88
2023-01-20T22:16:43.605Z,95207.94
2023-01-20T22:19:12.984Z,95212.22
2023-01-20T22:21:40.908Z,95213.03
2023-01-20T22:24:09.303Z,95212.22
2023-01-20T22:26:36.972Z,95215.66
2023-01-20T22:29:06.071Z,95213.03
2023-01-20T22:31:34.451Z,95212.22
2023-01-20T22:34:05.157Z,95215.78
2023-01-20T22:36:33.738Z,95222.81
2023-01-20T22:39:01.441Z,95220.22
2023-01-20T22:41:29.167Z,95222.81
2023-01-20T22:43:57.171Z,95223.63
2023-01-20T22:46:28.023Z,95224.59
2023-01-20T22:48:56.858Z,95220.22
2023-01-20T22:51:26.069Z,95235.03
2023-01-20T22:53:54.478Z,95228.03
2023-01-20T22:56:24.148Z,95228.03
2023-01-20T22:58:52.189Z,95233.25
2023-01-20T23:01:22.547Z,95229.00
2023-01-20T23:03:55.347Z,95230.66
2023-01-20T23:06:23.404Z,95228.84
2023-01-20T23:08:51.595Z,95235.88
2023-01-20T23:11:21.747Z,95229.81
2023-01-20T23:13:49.704Z,95233.25
2023-01-20T23:16:19.274Z,95229.66
2023-01-20T23:18:47.718Z,95228.72
2023-01-20T23:21:16.779Z,95227.88
2023-01-20T23:23:44.754Z,95226.22
2023-01-20T23:26:15.531Z,95235.72
2023-01-20T23:28:43.701Z,95231.44
2023-01-20T23:31:13.948Z,95228.03
2023-01-20T23:33:43.694Z,95225.44
2023-01-20T23:36:15.669Z,95227.22
2023-01-20T23:38:47.646Z,95225.44
2023-01-20T23:41:16.257Z,95227.22
2023-01-20T23:43:44.064Z,95222.81
2023-01-20T23:46:12.101Z,95226.38
2023-01-20T23:48:40.319Z,95230.78
2023-01-20T23:51:08.520Z,95223.78
2023-01-20T23:53:38.974Z,95229.00
2023-01-20T23:56:13.372Z,95229.81
2023-01-20T23:58:41.118Z,95236.81
